Time;durP1;ratioP1;P1;durP2;ratioP2;P2;SDS_P1;SDS_P2;PMS_P1;PMS_P2;Temp;Humidity;BMP_temperature;BMP_pressure;BME280_temperature;BME280_humidity;BME280_pressure;Samples;Min_cycle;Max_cycle;Signal;HPM_P1;HPM_P2
2021/11/02 00:01:37;;;;;;;3.47;1.83;;;6.60;85.80;;;;;;5077155;28;20039;-76
2021/11/02 00:04:02;;;;;;;2.60;1.88;;;6.70;85.70;;;;;;5077208;28;20020;-75
2021/11/02 00:06:28;;;;;;;4.38;2.22;;;6.60;85.50;;;;;;5095237;28;20108;-76
2021/11/02 00:08:54;;;;;;;4.93;2.20;;;6.60;85.60;;;;;;5076919;28;20111;-76
2021/11/02 00:11:20;;;;;;;3.95;2.17;;;6.60;85.60;;;;;;5060309;28;20411;-76
2021/11/02 00:13:48;;;;;;;5.03;2.42;;;6.70;85.50;;;;;;5076670;28;20055;-76
2021/11/02 00:16:20;;;;;;;5.97;2.20;;;6.70;85.60;;;;;;5110600;28;20016;-76
2021/11/02 00:18:50;;;;;;;6.15;1.92;;;6.70;85.30;;;;;;5060544;28;20165;-76
2021/11/02 00:21:16;;;;;;;5.57;2.42;;;6.70;85.10;;;;;;5076674;28;20028;-76
2021/11/02 00:23:43;;;;;;;4.38;1.73;;;6.70;84.70;;;;;;5076615;28;20028;-76
2021/11/02 00:26:12;;;;;;;2.53;1.33;;;6.80;84.60;;;;;;5076783;28;20028;-76
2021/11/02 00:28:39;;;;;;;4.63;1.73;;;6.90;84.70;;;;;;5094518;28;20051;-75
2021/11/02 00:31:05;;;;;;;3.38;1.30;;;6.90;84.60;;;;;;5076610;28;20028;-75
2021/11/02 00:33:30;;;;;;;5.13;1.42;;;6.90;84.70;;;;;;5094620;28;20070;-75
2021/11/02 00:35:57;;;;;;;4.03;1.30;;;6.90;84.90;;;;;;5076540;28;20028;-75
2021/11/02 00:38:23;;;;;;;3.17;1.02;;;6.90;84.70;;;;;;5076455;28;20422;-75
2021/11/02 00:40:49;;;;;;;2.72;1.25;;;7.00;84.70;;;;;;5074163;28;20082;-75
2021/11/02 00:43:15;;;;;;;2.33;1.48;;;7.00;84.40;;;;;;5094465;28;20110;-75
2021/11/02 00:45:41;;;;;;;1.42;1.10;;;7.10;84.30;;;;;;5076341;28;20024;-75
2021/11/02 00:48:12;;;;;;;2.65;1.23;;;7.10;84.10;;;;;;5076435;28;20031;-75
2021/11/02 00:50:41;;;;;;;2.30;1.35;;;7.10;84.10;;;;;;5076148;28;20027;-75
2021/11/02 00:53:07;;;;;;;2.08;1.25;;;7.10;84.10;;;;;;5076209;28;20034;-76
2021/11/02 00:55:35;;;;;;;3.20;1.30;;;7.10;84.30;;;;;;5059726;28;20059;-75
2021/11/02 00:58:03;;;;;;;3.72;1.52;;;7.10;84.10;;;;;;5076217;28;20082;-75
2021/11/02 01:00:29;;;;;;;2.20;1.30;;;7.00;84.10;;;;;;5076130;28;20127;-75
2021/11/02 01:02:54;;;;;;;4.30;1.70;;;7.00;84.50;;;;;;5075758;28;20541;-75
2021/11/02 01:05:20;;;;;;;2.38;1.52;;;7.00;84.60;;;;;;5075846;28;20024;-76
2021/11/02 01:07:46;;;;;;;4.63;1.85;;;7.10;84.60;;;;;;5075448;28;20020;-75
2021/11/02 01:10:15;;;;;;;13.77;2.20;;;7.10;84.60;;;;;;5075476;28;20086;-75
2021/11/02 01:12:43;;;;;;;7.32;2.17;;;7.10;84.70;;;;;;5093931;28;20032;-75
2021/11/02 01:15:16;;;;;;;2.05;1.63;;;7.10;84.80;;;;;;5075699;28;20077;-75
2021/11/02 01:17:44;;;;;;;6.57;2.10;;;7.10;84.80;;;;;;5088560;28;20024;-75
2021/11/02 01:20:11;;;;;;;4.20;2.13;;;7.20;84.90;;;;;;5075745;28;20032;-75
2021/11/02 01:22:38;;;;;;;3.90;2.17;;;7.20;85.00;;;;;;5093185;28;20035;-75
2021/11/02 01:25:05;;;;;;;2.58;1.88;;;7.20;84.80;;;;;;5075494;28;20388;-75
2021/11/02 01:27:31;;;;;;;3.30;2.05;;;7.30;84.70;;;;;;5075397;28;20028;-75
2021/11/02 01:29:56;;;;;;;2.72;2.00;;;7.30;84.70;;;;;;5075155;28;20032;-75
2021/11/02 01:32:22;;;;;;;2.58;1.83;;;7.30;84.20;;;;;;5075238;28;20028;-76
2021/11/02 01:34:48;;;;;;;3.75;1.63;;;7.30;84.40;;;;;;5092200;28;20110;-75
2021/11/02 01:37:13;;;;;;;3.70;1.90;;;7.30;84.40;;;;;;5075243;28;20107;-75
2021/11/02 01:39:39;;;;;;;3.38;1.50;;;7.40;84.40;;;;;;5074656;28;20036;-75
2021/11/02 01:42:06;;;;;;;2.22;1.60;;;7.40;84.40;;;;;;5074649;28;20023;-75
2021/11/02 01:44:32;;;;;;;2.38;1.58;;;7.40;84.50;;;;;;5074582;28;20039;-76
2021/11/02 01:46:58;;;;;;;4.18;1.55;;;7.50;84.40;;;;;;5091196;28;20020;-75
2021/11/02 01:49:24;;;;;;;5.00;1.70;;;7.50;84.50;;;;;;5074445;28;20020;-76
2021/11/02 01:51:50;;;;;;;4.38;1.58;;;7.60;84.50;;;;;;5074202;28;20116;-76
2021/11/02 01:54:18;;;;;;;1.40;1.17;;;7.60;84.50;;;;;;5074476;28;20016;-76
2021/11/02 01:56:48;;;;;;;2.50;2.08;;;7.60;84.70;;;;;;5074190;28;20028;-75
2021/11/02 01:59:15;;;;;;;2.10;1.30;;;7.60;84.60;;;;;;5058502;28;20058;-75
2021/11/02 02:01:58;;;;;;;4.15;1.40;;;7.70;84.60;;;;;;5107907;28;20032;-75
2021/11/02 02:04:29;;;;;;;4.40;1.33;;;7.70;84.60;;;;;;5074320;28;20023;-75
2021/11/02 02:07:10;;;;;;;1.63;1.13;;;7.70;84.50;;;;;;5092451;28;20028;-75
2021/11/02 02:09:57;;;;;;;1.85;1.33;;;7.70;84.70;;;;;;5074073;28;20020;-74
2021/11/02 02:12:43;;;;;;;4.05;1.20;;;7.70;84.80;;;;;;5074261;28;20495;-75
2021/11/02 02:15:18;;;;;;;1.42;1.00;;;7.70;84.80;;;;;;5091069;28;20036;-74
2021/11/02 02:18:11;;;;;;;5.82;1.92;;;7.70;84.60;;;;;;5075754;28;20043;-75
2021/11/02 02:21:16;;;;;;;1.55;1.08;;;7.80;84.50;;;;;;5078441;28;20032;-74
2021/11/02 02:23:54;;;;;;;3.17;1.05;;;7.80;84.50;;;;;;5077519;28;20555;-75
2021/11/02 02:26:36;;;;;;;3.83;1.10;;;7.90;84.50;;;;;;5074319;28;20016;-75
2021/11/02 02:29:04;;;;;;;1.73;0.80;;;7.90;83.70;;;;;;5073996;28;20021;-75
2021/11/02 02:31:38;;;;;;;1.90;0.90;;;7.90;82.80;;;;;;5073846;28;20067;-74
2021/11/02 02:34:11;;;;;;;1.17;0.98;;;8.00;82.90;;;;;;5073996;28;20020;-75
2021/11/02 02:36:37;;;;;;;2.03;0.80;;;8.00;82.90;;;;;;5073925;28;20115;-75
2021/11/02 02:39:04;;;;;;;2.45;0.90;;;8.00;82.90;;;;;;5034575;28;1111034;-75
2021/11/02 02:41:30;;;;;;;2.47;0.88;;;8.10;83.10;;;;;;5074762;28;20085;-75
2021/11/02 02:43:56;;;;;;;1.67;1.20;;;8.10;83.30;;;;;;5092666;28;20040;-75
2021/11/02 02:46:23;;;;;;;2.72;1.00;;;8.10;83.20;;;;;;5074599;28;20036;-75
2021/11/02 02:48:49;;;;;;;3.55;0.95;;;8.10;83.10;;;;;;5074433;28;20093;-76
2021/11/02 02:51:16;;;;;;;0.88;0.60;;;8.00;82.70;;;;;;5074417;28;20022;-76
2021/11/02 02:53:47;;;;;;;1.38;0.85;;;8.10;82.60;;;;;;5074547;28;20044;-76
2021/11/02 02:56:13;;;;;;;2.45;1.00;;;8.10;82.70;;;;;;5074325;28;20020;-76
2021/11/02 02:58:43;;;;;;;2.00;1.10;;;8.20;82.80;;;;;;5074290;28;20051;-75
2021/11/02 03:01:11;;;;;;;3.38;1.05;;;8.10;82.90;;;;;;5074243;28;20033;-76
2021/11/02 03:03:43;;;;;;;2.28;0.90;;;8.10;83.00;;;;;;5074142;28;20016;-76
2021/11/02 03:06:11;;;;;;;2.38;1.35;;;8.10;83.10;;;;;;5074667;28;20047;-76
2021/11/02 03:08:38;;;;;;;3.60;1.20;;;8.10;83.10;;;;;;5074288;28;20028;-76
2021/11/02 03:11:07;;;;;;;1.58;1.10;;;8.10;83.10;;;;;;5057660;28;20107;-76
2021/11/02 03:13:38;;;;;;;3.15;1.13;;;8.00;83.00;;;;;;5074095;28;20024;-75
2021/11/02 03:16:08;;;;;;;1.90;0.98;;;8.10;83.10;;;;;;5092388;28;20055;-75
2021/11/02 03:44:02;;;;;;;1.48;0.77;;;8.10;83.20;;;;;;5096058;28;20157;-75
2021/11/02 03:49:25;;;;;;;7.90;1.00;;;8.10;83.30;;;;;;5096071;28;20039;-76
2021/11/02 03:59:54;;;;;;;1.27;0.70;;;8.00;83.20;;;;;;5095385;28;20067;-74
2021/11/02 04:38:55;;;;;;;7.45;1.45;;;7.70;83.00;;;;;;5094832;28;20365;-77
2021/11/02 05:07:29;;;;;;;1.17;0.70;;;7.50;81.90;;;;;;5094401;28;20028;-77
2021/11/02 05:13:15;;;;;;;2.45;0.85;;;7.50;82.20;;;;;;5076209;28;20031;-76
2021/11/02 05:51:44;;;;;;;3.78;0.82;;;6.90;83.80;;;;;;5093912;28;20027;-77
2021/11/02 06:04:41;;;;;;;3.28;0.95;;;6.80;83.60;;;;;;5093432;28;20027;-74
2021/11/02 06:07:31;;;;;;;3.97;1.63;;;6.80;83.30;;;;;;5094173;28;20051;-75
2021/11/02 06:10:15;;;;;;;2.28;1.23;;;6.80;83.30;;;;;;5079163;28;20492;-76
2021/11/02 06:29:24;;;;;;;4.45;1.63;;;6.80;82.60;;;;;;5095353;28;20059;-76
2021/11/02 06:31:55;;;;;;;3.03;1.15;;;6.80;82.80;;;;;;5075885;28;20092;-74
2021/11/02 06:37:24;;;;;;;2.97;2.00;;;6.80;82.80;;;;;;5094328;28;20040;-76
2021/11/02 06:48:01;;;;;;;4.22;1.92;;;6.90;83.10;;;;;;5093311;28;20183;-75
2021/11/02 07:16:39;;;;;;;6.03;2.63;;;7.40;81.30;;;;;;5096542;28;20031;-75
2021/11/02 07:19:11;;;;;;;2.95;1.63;;;7.40;81.10;;;;;;5077797;28;20573;-75
2021/11/02 07:24:19;;;;;;;2.05;1.27;;;7.50;81.00;;;;;;5096144;28;20031;-74
2021/11/02 08:45:03;;;;;;;3.10;0.90;;;7.90;81.30;;;;;;5094698;28;20067;-76
2021/11/02 08:47:36;;;;;;;2.40;0.73;;;7.90;81.90;;;;;;5094368;28;20016;-76
2021/11/02 08:50:10;;;;;;;1.85;0.98;;;7.90;82.80;;;;;;5094741;28;20028;-75
2021/11/02 08:52:37;;;;;;;8.13;1.02;;;7.90;81.20;;;;;;5076118;28;20016;-77
2021/11/02 08:55:08;;;;;;;4.55;1.60;;;8.00;81.00;;;;;;5076296;28;20024;-76
2021/11/02 08:57:33;;;;;;;1.23;0.82;;;7.90;81.40;;;;;;5075521;28;20055;-77
2021/11/02 08:59:59;;;;;;;2.60;1.45;;;7.90;81.30;;;;;;5075935;28;20122;-77
2021/11/02 09:02:39;;;;;;;1.98;1.00;;;8.00;81.90;;;;;;5075844;28;20032;-77
2021/11/02 09:05:12;;;;;;;1.58;1.38;;;8.00;82.30;;;;;;5093893;28;20020;-77
2021/11/02 09:07:39;;;;;;;1.88;0.80;;;8.20;81.60;;;;;;5094017;28;20057;-76
2021/11/02 09:10:19;;;;;;;1.30;1.00;;;8.20;80.50;;;;;;5075855;28;20042;-76
2021/11/02 09:12:49;;;;;;;1.90;0.75;;;8.40;80.70;;;;;;5075432;28;20035;-76
2021/11/02 09:15:21;;;;;;;1.75;0.80;;;8.50;78.90;;;;;;5075688;28;20024;-76
2021/11/02 09:17:48;;;;;;;0.93;0.70;;;8.60;79.80;;;;;;5093717;28;20040;-76
2021/11/02 09:20:16;;;;;;;2.17;0.95;;;8.70;78.90;;;;;;5075032;28;20051;-75
2021/11/02 09:22:42;;;;;;;2.15;0.93;;;8.70;79.10;;;;;;5075122;28;20031;-75
2021/11/02 09:25:09;;;;;;;1.75;0.60;;;8.80;76.90;;;;;;5075270;28;20023;-76
2021/11/02 09:27:36;;;;;;;0.85;0.65;;;8.80;76.40;;;;;;5075279;28;20043;-75
2021/11/02 09:30:04;;;;;;;3.33;0.65;;;8.80;77.30;;;;;;5074742;28;20383;-75
2021/11/02 09:32:30;;;;;;;1.70;0.80;;;8.60;76.50;;;;;;5075309;28;20072;-75
2021/11/02 09:34:56;;;;;;;1.38;0.57;;;8.70;76.50;;;;;;5075066;28;20020;-80
2021/11/02 09:37:36;;;;;;;1.58;0.63;;;8.70;79.10;;;;;;5093283;28;20103;-78
2021/11/02 09:40:20;;;;;;;1.00;0.35;;;8.60;77.50;;;;;;5077320;28;20069;-82
2021/11/02 09:43:15;;;;;;;2.78;0.30;;;8.80;78.70;;;;;;5078785;28;20024;-82
2021/11/02 09:46:09;;;;;;;2.45;0.40;;;8.80;77.80;;;;;;5092338;28;20032;-83
2021/11/02 09:49:23;;;;;;;0.55;0.40;;;8.90;77.30;;;;;;5075131;28;20027;-83
2021/11/02 09:52:18;;;;;;;0.32;0.32;;;9.10;77.60;;;;;;5074894;28;20048;-82
2021/11/02 09:55:02;;;;;;;0.28;0.10;;;9.10;75.20;;;;;;5075533;28;20419;-83
2021/11/02 09:58:03;;;;;;;0.20;0.20;;;9.30;74.20;;;;;;5075779;28;20070;-82
2021/11/02 10:00:49;;;;;;;2.00;0.50;;;9.30;73.20;;;;;;5075388;28;20107;-83
2021/11/02 10:03:27;;;;;;;;;;;9.20;73.60;;;;;;5075327;28;20472;-82
2021/11/02 10:06:11;;;;;;;1.45;0.65;;;9.30;75.10;;;;;;5074512;28;19942;-82
2021/11/02 10:08:48;;;;;;;0.30;0.25;;;9.70;74.10;;;;;;5077341;28;20115;-82
2021/11/02 10:11:31;;;;;;;0.80;0.47;;;10.10;71.70;;;;;;5093092;28;20035;-81
2021/11/02 10:14:15;;;;;;;0.20;0.17;;;10.50;71.00;;;;;;5075450;28;20081;-83
2021/11/02 10:17:01;;;;;;;0.65;0.20;;;10.90;68.20;;;;;;5059878;28;20098;-82
2021/11/02 10:19:52;;;;;;;0.15;0.15;;;11.10;67.50;;;;;;5074601;28;20031;-82
2021/11/02 10:22:42;;;;;;;0.70;0.10;;;11.00;65.40;;;;;;5074699;28;20113;-83
2021/11/02 10:25:16;;;;;;;0.47;0.30;;;10.70;67.60;;;;;;5074806;28;20031;-81
2021/11/02 10:27:58;;;;;;;0.80;0.20;;;10.70;68.30;;;;;;5092985;28;20073;-83
2021/11/02 10:30:46;;;;;;;0.45;0.20;;;10.70;67.10;;;;;;5074746;28;20020;-76
2021/11/02 10:33:33;;;;;;;0.43;0.28;;;11.10;67.20;;;;;;5075149;28;20479;-76
2021/11/02 10:36:29;;;;;;;0.30;0.28;;;11.20;66.90;;;;;;5057705;28;20123;-75
2021/11/02 10:39:04;;;;;;;0.00;0.00;;;11.30;65.80;;;;;;5075779;28;20051;-74
2021/11/02 10:41:35;;;;;;;;;;;11.50;65.70;;;;;;5076622;28;20036;-76
2021/11/02 10:44:22;;;;;;;0.10;0.10;;;11.30;65.30;;;;;;5078914;28;19904;-74
2021/11/02 10:47:00;;;;;;;4.97;0.20;;;11.50;64.90;;;;;;5078238;28;20103;-76
2021/11/02 10:49:35;;;;;;;0.90;0.10;;;11.60;65.30;;;;;;5078292;28;20119;-77
2021/11/02 10:52:05;;;;;;;0.43;0.20;;;11.50;66.10;;;;;;5096330;28;20027;-77
2021/11/02 10:55:12;;;;;;;0.10;0.10;;;11.40;65.00;;;;;;5078336;28;20009;-77
2021/11/02 10:57:57;;;;;;;0.20;0.10;;;11.30;66.00;;;;;;5057027;28;20164;-76
2021/11/02 11:00:27;;;;;;;1.38;0.20;;;10.80;67.10;;;;;;5058190;28;20147;-77
2021/11/02 11:02:55;;;;;;;0.38;0.22;;;10.40;69.20;;;;;;5057951;28;20076;-77
2021/11/02 11:05:26;;;;;;;0.45;0.17;;;10.10;71.60;;;;;;5056798;28;20112;-76
2021/11/02 11:07:54;;;;;;;0.30;0.20;;;10.00;72.30;;;;;;5060967;28;20036;-75
2021/11/02 11:10:24;;;;;;;1.05;0.38;;;9.70;73.20;;;;;;5056744;28;20477;-76
2021/11/02 11:12:58;;;;;;;0.40;0.40;;;9.50;74.80;;;;;;5056563;28;20036;-77
2021/11/02 11:15:27;;;;;;;2.95;0.70;;;9.50;75.40;;;;;;5072724;28;20421;-76
2021/11/02 11:18:07;;;;;;;0.80;0.50;;;9.30;76.00;;;;;;5056484;28;20086;-76
2021/11/02 11:20:41;;;;;;;0.43;0.30;;;9.30;76.80;;;;;;5056594;28;20036;-76
2021/11/02 11:23:10;;;;;;;0.50;0.50;;;9.60;74.80;;;;;;5073343;28;20040;-76
2021/11/02 11:25:49;;;;;;;0.70;0.25;;;10.00;72.50;;;;;;5056003;28;20428;-75
2021/11/02 11:28:19;;;;;;;0.28;0.20;;;10.40;70.10;;;;;;5064427;28;20074;-76
2021/11/02 11:30:45;;;;;;;0.10;0.10;;;10.80;69.40;;;;;;5077192;28;20031;-75
2021/11/02 11:33:18;;;;;;;0.32;0.20;;;11.10;65.60;;;;;;5077603;28;20051;-76
2021/11/02 11:35:45;;;;;;;0.13;0.10;;;11.10;66.50;;;;;;5076834;28;20464;-78
2021/11/02 11:38:13;;;;;;;0.47;0.28;;;11.90;65.10;;;;;;5077427;28;20032;-75
2021/11/02 11:40:45;;;;;;;0.20;0.10;;;12.50;63.40;;;;;;5076884;28;20812;-75
2021/11/02 11:43:12;;;;;;;0.28;0.10;;;12.40;60.60;;;;;;5077008;28;20024;-76
2021/11/02 11:45:46;;;;;;;0.08;0.08;;;12.10;62.00;;;;;;5077043;28;20020;-75
2021/11/02 11:48:15;;;;;;;0.75;0.20;;;12.20;60.90;;;;;;5061234;28;20166;-76
2021/11/02 11:50:43;;;;;;;0.73;0.35;;;12.40;61.20;;;;;;5076803;28;20421;-76
2021/11/02 11:53:15;;;;;;;1.10;0.40;;;12.20;62.10;;;;;;5076411;28;20039;-75
2021/11/02 11:55:45;;;;;;;0.28;0.17;;;11.90;62.70;;;;;;5061394;28;20056;-75
2021/11/02 11:58:10;;;;;;;0.43;0.20;;;12.00;62.30;;;;;;5076834;28;20024;-75
2021/11/02 12:00:40;;;;;;;0.30;0.20;;;12.30;61.10;;;;;;5076675;28;20035;-76
2021/11/02 12:03:35;;;;;;;0.40;0.10;;;12.50;59.60;;;;;;5076952;28;20028;-74
2021/11/02 12:06:16;;;;;;;0.20;0.10;;;12.20;58.90;;;;;;5095082;28;20055;-76
2021/11/02 12:09:14;;;;;;;0.10;0.00;;;12.40;59.20;;;;;;5076565;28;20024;-77
2021/11/02 12:11:42;;;;;;;0.90;0.50;;;12.50;58.40;;;;;;5067853;28;20086;-77
2021/11/02 12:14:09;;;;;;;0.45;0.25;;;12.00;59.20;;;;;;5076670;28;20491;-77
2021/11/02 12:16:45;;;;;;;0.15;0.15;;;11.80;60.50;;;;;;5095065;28;20038;-77
2021/11/02 12:19:39;;;;;;;1.05;0.25;;;11.80;59.90;;;;;;5076818;28;20353;-77
2021/11/02 12:22:14;;;;;;;0.63;0.50;;;11.50;61.30;;;;;;5058782;28;20602;-75
2021/11/02 12:24:45;;;;;;;2.42;0.93;;;11.40;64.00;;;;;;5095053;28;20121;-77
2021/11/02 12:27:18;;;;;;;0.40;0.10;;;10.90;63.80;;;;;;5077631;28;20492;-76
2021/11/02 12:29:49;;;;;;;0.47;0.40;;;10.70;64.50;;;;;;5076439;28;20472;-76
2021/11/02 12:32:18;;;;;;;1.35;0.30;;;10.50;65.20;;;;;;5076323;28;20125;-76
2021/11/02 12:34:54;;;;;;;1.58;0.70;;;10.40;67.10;;;;;;5078940;28;20031;-77
2021/11/02 12:37:21;;;;;;;1.08;0.13;;;10.40;67.30;;;;;;5079924;28;20028;-77
2021/11/02 12:39:48;;;;;;;0.30;0.30;;;10.20;67.60;;;;;;5077840;28;20566;-76
2021/11/02 12:42:24;;;;;;;0.45;0.32;;;10.20;69.40;;;;;;5078388;28;20032;-75
2021/11/02 12:44:51;;;;;;;0.40;0.40;;;10.10;71.50;;;;;;5061724;28;20086;-75
2021/11/02 12:47:23;;;;;;;2.92;0.60;;;10.00;72.70;;;;;;5095330;28;20043;-76
2021/11/02 12:49:48;;;;;;;0.25;0.25;;;10.00;73.90;;;;;;5076693;28;20036;-76
2021/11/02 12:52:18;;;;;;;0.20;0.15;;;10.10;74.20;;;;;;5075910;28;20070;-76
2021/11/02 12:55:11;;;;;;;0.25;0.20;;;9.90;72.40;;;;;;5093858;28;20123;-76
2021/11/02 12:57:46;;;;;;;0.70;0.70;;;10.30;70.50;;;;;;5076193;28;20031;-76
2021/11/02 13:00:13;;;;;;;0.45;0.20;;;11.40;68.00;;;;;;5076028;28;20115;-76
2021/11/02 13:02:50;;;;;;;1.35;0.50;;;12.30;64.30;;;;;;5077387;28;20055;-77
2021/11/02 13:05:24;;;;;;;1.10;0.50;;;14.20;58.60;;;;;;5075102;28;20024;-78
2021/11/02 13:08:08;;;;;;;0.73;0.30;;;15.70;51.80;;;;;;5075519;28;20040;-78
2021/11/02 13:10:35;;;;;;;2.28;0.30;;;16.10;48.70;;;;;;5076260;28;20427;-78
2021/11/02 13:13:06;;;;;;;0.32;0.20;;;15.00;49.20;;;;;;5076232;28;20081;-77
2021/11/02 13:15:47;;;;;;;1.80;0.20;;;14.10;52.50;;;;;;5076020;28;20028;-76
2021/11/02 13:18:27;;;;;;;1.08;0.38;;;13.30;55.10;;;;;;5075577;28;20119;-76
2021/11/02 13:20:58;;;;;;;2.55;0.57;;;12.40;57.90;;;;;;5075371;28;20036;-75
2021/11/02 13:23:40;;;;;;;0.05;0.00;;;11.70;61.80;;;;;;5075034;28;20020;-77
2021/11/02 13:26:16;;;;;;;0.15;0.15;;;11.60;61.50;;;;;;5073064;28;20445;-75
2021/11/02 13:28:43;;;;;;;0.20;0.08;;;12.10;61.90;;;;;;5109133;28;20051;-78
2021/11/02 13:31:33;;;;;;;0.20;0.10;;;12.50;58.90;;;;;;5074940;28;20024;-77
2021/11/02 13:34:05;;;;;;;1.77;0.17;;;12.90;58.30;;;;;;5075152;28;20652;-77
2021/11/02 13:36:31;;;;;;;0.13;0.13;;;12.90;57.80;;;;;;5093251;28;20389;-77
2021/11/02 13:39:07;;;;;;;0.17;0.13;;;15.20;52.80;;;;;;5093187;28;20086;-75
2021/11/02 13:41:35;;;;;;;0.40;0.00;;;18.00;43.20;;;;;;5074691;28;20059;-78
2021/11/02 13:44:05;;;;;;;0.55;0.52;;;16.90;41.10;;;;;;5075003;28;20020;-78
2021/11/02 13:46:37;;;;;;;0.10;0.10;;;15.30;45.30;;;;;;5093129;28;20434;-79
2021/11/02 13:49:05;;;;;;;0.20;0.10;;;14.90;47.60;;;;;;5072134;28;20480;-77
2021/11/02 13:51:31;;;;;;;0.22;0.10;;;14.40;47.90;;;;;;5075070;28;20092;-77
2021/11/02 13:53:57;;;;;;;0.30;0.10;;;13.20;51.70;;;;;;5074878;28;20035;-77
2021/11/02 13:56:32;;;;;;;0.65;0.25;;;12.10;55.70;;;;;;5074833;28;20032;-75
2021/11/02 13:58:59;;;;;;;1.13;0.28;;;11.40;58.70;;;;;;5074806;28;20028;-77
2021/11/02 14:01:47;;;;;;;0.55;0.35;;;10.60;62.40;;;;;;5074576;28;20028;-77
2021/11/02 14:04:20;;;;;;;0.38;0.20;;;10.20;64.90;;;;;;5092993;28;20024;-75
2021/11/02 14:06:52;;;;;;;1.27;0.10;;;9.90;65.30;;;;;;5093079;28;20034;-77
2021/11/02 14:09:25;;;;;;;0.13;0.13;;;9.70;67.90;;;;;;5109631;28;20169;-78
2021/11/02 14:11:51;;;;;;;0.70;0.45;;;9.70;67.30;;;;;;5077578;28;20020;-75
2021/11/02 14:14:32;;;;;;;1.65;0.60;;;9.70;67.80;;;;;;5064477;28;20039;-78
2021/11/02 14:17:23;;;;;;;0.65;0.40;;;9.80;67.70;;;;;;5079267;28;20020;-77
2021/11/02 14:19:52;;;;;;;0.93;0.65;;;9.80;67.40;;;;;;5075939;28;20028;-76
2021/11/02 14:22:46;;;;;;;2.05;1.48;;;9.80;68.10;;;;;;5058364;28;20060;-77
2021/11/02 14:25:16;;;;;;;1.13;0.60;;;9.90;68.30;;;;;;5074324;28;20016;-76
2021/11/02 14:27:43;;;;;;;1.15;0.47;;;9.90;67.90;;;;;;5074686;28;20122;-78
2021/11/02 14:30:32;;;;;;;0.68;0.45;;;9.90;67.80;;;;;;5074552;28;20020;-76
2021/11/02 14:32:59;;;;;;;0.35;0.22;;;9.90;68.10;;;;;;5072117;28;20388;-76
2021/11/02 14:35:35;;;;;;;0.25;0.20;;;10.20;66.80;;;;;;5075007;28;20021;-76
2021/11/02 14:38:27;;;;;;;0.30;0.22;;;11.60;62.60;;;;;;5074867;28;20024;-76
2021/11/02 14:41:04;;;;;;;1.25;0.40;;;14.40;54.20;;;;;;5074267;28;20377;-77
2021/11/02 14:43:33;;;;;;;0.45;0.20;;;16.20;45.40;;;;;;5100599;28;20059;-77
2021/11/02 14:46:04;;;;;;;3.13;0.50;;;16.70;42.40;;;;;;5089880;28;20431;-78
2021/11/02 14:48:49;;;;;;;1.33;0.82;;;18.10;39.20;;;;;;5094225;28;20093;-77
2021/11/02 14:51:25;;;;;;;1.75;0.90;;;17.30;39.30;;;;;;5074540;28;20032;-78
2021/11/02 14:53:53;;;;;;;3.13;0.85;;;16.00;42.30;;;;;;5074370;28;20020;-75
2021/11/02 14:56:20;;;;;;;2.53;1.33;;;14.70;45.50;;;;;;5092901;28;20024;-78
2021/11/02 14:58:48;;;;;;;2.03;0.60;;;14.00;48.70;;;;;;5074336;28;20031;-76
2021/11/02 15:01:26;;;;;;;2.67;0.90;;;13.60;49.70;;;;;;5074634;28;20040;-77
2021/11/02 15:03:59;;;;;;;0.50;0.50;;;12.80;52.00;;;;;;5092587;28;20074;-77
2021/11/02 15:06:35;;;;;;;0.85;0.28;;;11.90;55.40;;;;;;5074581;28;20024;-77
2021/11/02 15:09:04;;;;;;;0.57;0.20;;;11.60;57.30;;;;;;5073830;28;20024;-75
2021/11/02 15:11:30;;;;;;;3.13;0.52;;;11.30;57.90;;;;;;5074284;28;20024;-76
2021/11/02 15:14:05;;;;;;;2.17;0.40;;;11.00;59.50;;;;;;5074289;28;20028;-77
2021/11/02 15:16:31;;;;;;;;;;;11.00;59.80;;;;;;5074925;28;20025;-75
2021/11/02 15:19:03;;;;;;;;;;;10.60;60.70;;;;;;5092536;28;19934;-75
2021/11/02 15:21:32;;;;;;;0.63;0.40;;;10.20;62.50;;;;;;5074117;28;19912;-77
2021/11/02 15:24:05;;;;;;;0.52;0.32;;;9.90;64.40;;;;;;5057207;28;20390;-75
2021/11/02 15:26:40;;;;;;;0.57;0.30;;;9.70;66.60;;;;;;5074631;28;20388;-76
2021/11/02 15:29:09;;;;;;;2.55;0.95;;;9.60;66.80;;;;;;5096238;28;20048;-75
2021/11/02 15:31:38;;;;;;;2.05;0.68;;;9.50;67.60;;;;;;5077795;28;20030;-76
2021/11/02 15:34:16;;;;;;;2.47;1.02;;;9.70;67.70;;;;;;5095200;28;20039;-74
2021/11/02 15:36:43;;;;;;;2.70;1.60;;;9.70;68.60;;;;;;5111250;28;20070;-77
2021/11/02 15:39:09;;;;;;;3.25;1.15;;;9.70;68.70;;;;;;5077502;28;20020;-76
2021/11/02 15:41:36;;;;;;;1.17;0.88;;;9.90;68.80;;;;;;5095686;28;20067;-75
2021/11/02 15:44:07;;;;;;;2.85;1.65;;;10.00;68.50;;;;;;5077439;28;20042;-75
2021/11/02 15:46:35;;;;;;;3.33;0.75;;;10.00;68.40;;;;;;5077365;28;20031;-77
2021/11/02 15:49:04;;;;;;;5.03;2.60;;;10.00;68.10;;;;;;5095720;28;20070;-76
2021/11/02 15:51:33;;;;;;;2.80;1.42;;;10.00;70.10;;;;;;5060875;28;20031;-75
2021/11/02 15:54:13;;;;;;;6.43;1.67;;;9.80;69.50;;;;;;5095456;28;20473;-76
2021/11/02 15:56:41;;;;;;;1.48;0.80;;;9.50;72.30;;;;;;5094072;28;20040;-76
2021/11/02 15:59:09;;;;;;;3.63;1.23;;;9.30;73.70;;;;;;5077340;28;20016;-77
2021/11/02 16:01:48;;;;;;;1.05;0.90;;;9.30;74.60;;;;;;5076975;28;20395;-74
2021/11/02 16:04:23;;;;;;;2.10;1.30;;;9.10;74.60;;;;;;5076943;28;20024;-75
2021/11/02 16:07:06;;;;;;;3.63;0.60;;;9.10;75.00;;;;;;5077015;28;20468;-75
2021/11/02 16:10:07;;;;;;;1.73;1.00;;;9.00;74.50;;;;;;5077049;28;20035;-75
2021/11/02 16:12:40;;;;;;;1.77;1.20;;;8.90;75.10;;;;;;5052660;28;20032;-75
2021/11/02 16:15:19;;;;;;;2.22;1.30;;;8.90;74.90;;;;;;5088251;28;20038;-75
2021/11/02 16:17:50;;;;;;;0.98;0.63;;;8.90;74.20;;;;;;5077159;28;20031;-76
2021/11/02 16:20:43;;;;;;;1.67;0.77;;;8.90;74.20;;;;;;5076839;28;20593;-76
2021/11/02 16:23:24;;;;;;;1.23;0.73;;;8.90;74.40;;;;;;5071994;28;20032;-77
2021/11/02 16:25:53;;;;;;;1.80;1.00;;;8.80;73.70;;;;;;5060644;28;20034;-76
2021/11/02 16:28:21;;;;;;;3.53;1.15;;;8.80;74.40;;;;;;5076780;28;20020;-76
2021/11/02 16:31:03;;;;;;;0.75;0.60;;;8.80;74.00;;;;;;5076698;28;20123;-76
2021/11/02 16:33:36;;;;;;;2.42;1.05;;;8.70;74.00;;;;;;5076722;28;20055;-77
2021/11/02 16:36:38;;;;;;;1.23;0.93;;;8.60;74.00;;;;;;5099088;28;20020;-75
2021/11/02 16:39:19;;;;;;;1.90;0.63;;;8.60;74.10;;;;;;5093294;28;20107;-76
2021/11/02 16:41:51;;;;;;;1.15;0.43;;;8.60;73.80;;;;;;5059719;28;20488;-76
2021/11/02 16:44:31;;;;;;;1.30;0.60;;;8.50;72.90;;;;;;5094736;28;20107;-76
2021/11/02 16:47:02;;;;;;;3.25;1.23;;;8.40;73.70;;;;;;5094523;28;20456;-75
2021/11/02 16:49:28;;;;;;;1.10;0.75;;;8.50;72.60;;;;;;5094437;28;20121;-77
2021/11/02 16:51:54;;;;;;;1.40;0.55;;;8.50;72.50;;;;;;5075517;28;20536;-76
2021/11/02 16:54:30;;;;;;;2.30;0.63;;;8.50;72.10;;;;;;5093242;28;20190;-75
2021/11/02 16:57:20;;;;;;;3.83;2.00;;;8.50;72.40;;;;;;5075718;28;20032;-75
2021/11/02 16:59:50;;;;;;;4.90;2.25;;;8.50;72.30;;;;;;5076214;28;20531;-76
2021/11/02 17:02:31;;;;;;;4.38;1.10;;;8.50;72.20;;;;;;5093112;28;20071;-76
2021/11/02 17:05:21;;;;;;;2.45;1.20;;;8.50;71.70;;;;;;5075705;28;20119;-76
2021/11/02 17:07:54;;;;;;;1.85;0.77;;;8.40;71.80;;;;;;5075994;28;20031;-75
2021/11/02 17:10:28;;;;;;;0.77;0.60;;;8.50;71.80;;;;;;5076053;28;20111;-76
2021/11/02 17:13:06;;;;;;;;;;;8.50;72.10;;;;;;5094681;28;20043;-76
2021/11/02 17:15:36;;;;;;;2.08;1.00;;;8.50;71.70;;;;;;5076135;28;20020;-76
2021/11/02 17:18:04;;;;;;;2.42;1.30;;;8.50;71.20;;;;;;5076003;28;20357;-76
2021/11/02 17:20:30;;;;;;;3.00;1.80;;;8.40;71.70;;;;;;5075924;28;20028;-77
2021/11/02 17:22:56;;;;;;;2.58;1.17;;;8.40;72.50;;;;;;5075336;28;20101;-76
2021/11/02 17:25:23;;;;;;;3.83;1.60;;;8.40;72.40;;;;;;5075505;28;20031;-76
2021/11/02 17:27:51;;;;;;;2.70;1.80;;;8.40;73.50;;;;;;5075800;28;20032;-76
2021/11/02 17:30:21;;;;;;;4.35;1.92;;;8.40;74.60;;;;;;5075732;28;20020;-77
2021/11/02 17:32:51;;;;;;;3.60;1.17;;;8.20;75.00;;;;;;5079294;28;20033;-77
2021/11/02 17:35:19;;;;;;;3.17;1.48;;;8.20;73.70;;;;;;5114924;28;20024;-76
2021/11/02 17:37:48;;;;;;;2.58;1.13;;;8.10;73.40;;;;;;5097131;28;20020;-77
2021/11/02 17:40:15;;;;;;;1.38;0.47;;;8.00;73.80;;;;;;5080146;28;20522;-77
2021/11/02 17:42:46;;;;;;;2.55;1.10;;;8.10;72.60;;;;;;5107701;28;20109;-76
2021/11/02 17:45:13;;;;;;;1.92;1.02;;;8.00;72.80;;;;;;5119970;28;20381;-78
2021/11/02 17:48:00;;;;;;;0.70;0.20;;;8.00;73.30;;;;;;5119804;28;20023;-78
2021/11/02 17:50:34;;;;;;;1.80;0.60;;;8.10;72.50;;;;;;5119135;28;20038;-76
2021/11/02 17:53:00;;;;;;;0.77;0.40;;;8.00;73.20;;;;;;5094761;28;20024;-75
2021/11/02 17:55:27;;;;;;;1.33;0.68;;;8.00;72.80;;;;;;5117164;28;20019;-74
2021/11/02 17:57:53;;;;;;;1.00;0.68;;;8.00;73.00;;;;;;5126323;28;20066;-72
2021/11/02 18:00:22;;;;;;;1.63;0.70;;;8.10;73.60;;;;;;5116846;28;21947;-77
2021/11/02 18:02:51;;;;;;;0.68;0.60;;;8.10;72.60;;;;;;5118018;28;20466;-77
2021/11/02 18:05:17;;;;;;;0.93;0.38;;;8.10;72.60;;;;;;5116121;28;20060;-76
2021/11/02 18:07:43;;;;;;;1.90;1.00;;;8.10;72.60;;;;;;5109728;28;20028;-76
2021/11/02 18:10:10;;;;;;;2.03;0.90;;;8.10;72.30;;;;;;5115946;28;20028;-75